sensor_id;sensor_type;location;lat;lon;timestamp;P1;durP1;ratioP1;P2;durP2;ratioP2
68507;SDS011;55510;49.560;19.090;2023-11-18T06:33:47;72.63;;;35.13;;
68507;SDS011;55510;49.560;19.090;2023-11-18T06:36:49;74.78;;;36.78;;
68507;SDS011;55510;49.560;19.090;2023-11-18T06:39:51;68.87;;;34.17;;
68507;SDS011;55510;49.560;19.090;2023-11-18T06:42:53;50.83;;;24.93;;
68507;SDS011;55510;49.560;19.090;2023-11-18T06:45:54;49.65;;;24.13;;
68507;SDS011;55510;49.560;19.090;2023-11-18T06:48:55;53.47;;;25.73;;
68507;SDS011;55510;49.560;19.090;2023-11-18T06:51:57;85.47;;;29.30;;
68507;SDS011;55510;49.560;19.090;2023-11-18T06:54:58;109.23;;;34.37;;
68507;SDS011;55510;49.560;19.090;2023-11-18T06:57:59;84.43;;;30.42;;
68507;SDS011;55510;49.560;19.090;2023-11-18T07:01:00;74.93;;;25.50;;
68507;SDS011;55510;49.560;19.090;2023-11-18T07:04:01;71.90;;;29.10;;
68507;SDS011;55510;49.560;19.090;2023-11-18T07:07:02;80.20;;;31.07;;
68507;SDS011;55510;49.560;19.090;2023-11-18T07:10:03;70.40;;;32.20;;
68507;SDS011;55510;49.560;19.090;2023-11-18T07:13:05;59.63;;;26.55;;
68507;SDS011;55510;49.560;19.090;2023-11-18T07:16:05;52.50;;;24.13;;
68507;SDS011;55510;49.560;19.090;2023-11-18T07:19:07;50.90;;;23.13;;
68507;SDS011;55510;49.560;19.090;2023-11-18T07:22:08;61.35;;;27.63;;
68507;SDS011;55510;49.560;19.090;2023-11-18T07:25:10;79.47;;;35.88;;
68507;SDS011;55510;49.560;19.090;2023-11-18T07:37:42;60.30;;;28.80;;
68507;SDS011;55510;49.560;19.090;2023-11-18T07:40:43;90.67;;;42.17;;
68507;SDS011;55510;49.560;19.090;2023-11-18T07:43:46;88.30;;;44.50;;
68507;SDS011;55510;49.560;19.090;2023-11-18T07:46:46;86.55;;;43.35;;
68507;SDS011;55510;49.560;19.090;2023-11-18T07:49:47;132.13;;;62.70;;
68507;SDS011;55510;49.560;19.090;2023-11-18T07:52:48;99.63;;;49.80;;
68507;SDS011;55510;49.560;19.090;2023-11-18T07:55:49;89.53;;;42.87;;
68507;SDS011;55510;49.560;19.090;2023-11-18T07:58:50;88.78;;;40.20;;
68507;SDS011;55510;49.560;19.090;2023-11-18T08:01:52;102.80;;;39.85;;
68507;SDS011;55510;49.560;19.090;2023-11-18T08:04:53;84.05;;;33.70;;
68507;SDS011;55510;49.560;19.090;2023-11-18T08:07:54;77.80;;;31.43;;
68507;SDS011;55510;49.560;19.090;2023-11-18T08:10:55;79.88;;;33.63;;
68507;SDS011;55510;49.560;19.090;2023-11-18T08:13:55;98.57;;;40.40;;
68507;SDS011;55510;49.560;19.090;2023-11-18T08:16:56;96.88;;;39.35;;
68507;SDS011;55510;49.560;19.090;2023-11-18T08:20:00;109.68;;;44.83;;
68507;SDS011;55510;49.560;19.090;2023-11-18T08:23:01;135.40;;;55.70;;
68507;SDS011;55510;49.560;19.090;2023-11-18T08:26:02;133.70;;;55.20;;
68507;SDS011;55510;49.560;19.090;2023-11-18T08:29:04;111.20;;;49.28;;
68507;SDS011;55510;49.560;19.090;2023-11-18T08:32:05;86.40;;;40.00;;
68507;SDS011;55510;49.560;19.090;2023-11-18T08:35:10;41.13;;;17.87;;
68507;SDS011;55510;49.560;19.090;2023-11-18T08:38:14;40.50;;;20.33;;
68507;SDS011;55510;49.560;19.090;2023-11-18T08:41:15;37.50;;;13.02;;
68507;SDS011;55510;49.560;19.090;2023-11-18T08:44:16;61.07;;;18.23;;
68507;SDS011;55510;49.560;19.090;2023-11-18T08:47:18;28.17;;;10.98;;
68507;SDS011;55510;49.560;19.090;2023-11-18T08:50:19;15.60;;;5.65;;
68507;SDS011;55510;49.560;19.090;2023-11-18T08:53:24;30.00;;;12.40;;
68507;SDS011;55510;49.560;19.090;2023-11-18T08:56:26;18.88;;;8.25;;
68507;SDS011;55510;49.560;19.090;2023-11-18T08:59:35;17.93;;;8.43;;
68507;SDS011;55510;49.560;19.090;2023-11-18T09:02:35;21.13;;;9.05;;
68507;SDS011;55510;49.560;19.090;2023-11-18T09:05:37;23.27;;;8.93;;
68507;SDS011;55510;49.560;19.090;2023-11-18T09:08:38;19.17;;;8.23;;
68507;SDS011;55510;49.560;19.090;2023-11-18T09:11:39;19.08;;;7.63;;
68507;SDS011;55510;49.560;19.090;2023-11-18T09:14:42;19.50;;;7.63;;
68507;SDS011;55510;49.560;19.090;2023-11-18T09:17:43;17.63;;;6.30;;
68507;SDS011;55510;49.560;19.090;2023-11-18T09:20:44;15.23;;;6.30;;
68507;SDS011;55510;49.560;19.090;2023-11-18T09:23:47;16.67;;;6.07;;
68507;SDS011;55510;49.560;19.090;2023-11-18T09:26:48;14.80;;;6.77;;
68507;SDS011;55510;49.560;19.090;2023-11-18T09:29:50;14.77;;;7.13;;
68507;SDS011;55510;49.560;19.090;2023-11-18T09:32:51;29.73;;;14.33;;
68507;SDS011;55510;49.560;19.090;2023-11-18T09:35:54;59.83;;;28.67;;
68507;SDS011;55510;49.560;19.090;2023-11-18T09:38:58;68.50;;;30.15;;
68507;SDS011;55510;49.560;19.090;2023-11-18T09:42:00;57.92;;;24.73;;
68507;SDS011;55510;49.560;19.090;2023-11-18T09:45:03;36.95;;;16.73;;
68507;SDS011;55510;49.560;19.090;2023-11-18T09:48:06;26.67;;;11.50;;
68507;SDS011;55510;49.560;19.090;2023-11-18T09:51:08;20.37;;;8.40;;
68507;SDS011;55510;49.560;19.090;2023-11-18T09:57:48;24.17;;;9.93;;
68507;SDS011;55510;49.560;19.090;2023-11-18T10:00:57;17.52;;;8.38;;
68507;SDS011;55510;49.560;19.090;2023-11-18T10:04:02;22.03;;;10.47;;
68507;SDS011;55510;49.560;19.090;2023-11-18T10:07:07;25.60;;;10.93;;
68507;SDS011;55510;49.560;19.090;2023-11-18T10:10:10;30.42;;;13.90;;
68507;SDS011;55510;49.560;19.090;2023-11-18T10:13:17;25.63;;;11.82;;
68507;SDS011;55510;49.560;19.090;2023-11-18T10:16:22;23.80;;;10.45;;
68507;SDS011;55510;49.560;19.090;2023-11-18T10:19:37;43.30;;;16.03;;
68507;SDS011;55510;49.560;19.090;2023-11-18T10:23:07;34.60;;;13.57;;
68507;SDS011;55510;49.560;19.090;2023-11-18T10:26:11;32.38;;;12.13;;
68507;SDS011;55510;49.560;19.090;2023-11-18T10:29:13;27.45;;;10.07;;
68507;SDS011;55510;49.560;19.090;2023-11-18T10:32:15;23.45;;;9.20;;
68507;SDS011;55510;49.560;19.090;2023-11-18T10:35:21;27.60;;;10.47;;
68507;SDS011;55510;49.560;19.090;2023-11-18T10:38:22;19.87;;;7.33;;
68507;SDS011;55510;49.560;19.090;2023-11-18T10:41:26;17.95;;;6.85;;
68507;SDS011;55510;49.560;19.090;2023-11-18T10:44:30;15.95;;;7.18;;
68507;SDS011;55510;49.560;19.090;2023-11-18T10:47:34;19.27;;;9.32;;
68507;SDS011;55510;49.560;19.090;2023-11-18T10:50:39;22.33;;;8.83;;
68507;SDS011;55510;49.560;19.090;2023-11-18T10:53:40;16.10;;;7.47;;
68507;SDS011;55510;49.560;19.090;2023-11-18T10:56:53;25.40;;;10.98;;
68507;SDS011;55510;49.560;19.090;2023-11-18T11:00:00;22.93;;;8.60;;
68507;SDS011;55510;49.560;19.090;2023-11-18T11:03:04;15.83;;;7.70;;
68507;SDS011;55510;49.560;19.090;2023-11-18T11:06:17;20.30;;;9.43;;
68507;SDS011;55510;49.560;19.090;2023-11-18T11:09:19;28.43;;;13.00;;
68507;SDS011;55510;49.560;19.090;2023-11-18T11:12:25;52.70;;;24.83;;
68507;SDS011;55510;49.560;19.090;2023-11-18T11:15:30;39.40;;;18.73;;
68507;SDS011;55510;49.560;19.090;2023-11-18T11:18:32;35.47;;;16.55;;
68507;SDS011;55510;49.560;19.090;2023-11-18T11:21:43;22.70;;;11.10;;
68507;SDS011;55510;49.560;19.090;2023-11-18T11:28:22;19.47;;;9.23;;
68507;SDS011;55510;49.560;19.090;2023-11-18T11:31:26;19.60;;;9.45;;
68507;SDS011;55510;49.560;19.090;2023-11-18T11:34:32;21.60;;;8.38;;
68507;SDS011;55510;49.560;19.090;2023-11-18T11:37:35;21.60;;;9.82;;
68507;SDS011;55510;49.560;19.090;2023-11-18T11:40:42;35.80;;;13.80;;
68507;SDS011;55510;49.560;19.090;2023-11-18T11:43:48;31.23;;;15.17;;
68507;SDS011;55510;49.560;19.090;2023-11-18T11:46:50;26.85;;;12.13;;
68507;SDS011;55510;49.560;19.090;2023-11-18T11:50:02;32.38;;;14.80;;
68507;SDS011;55510;49.560;19.090;2023-11-18T11:53:15;27.40;;;12.93;;
68507;SDS011;55510;49.560;19.090;2023-11-18T11:56:20;22.17;;;10.33;;
68507;SDS011;55510;49.560;19.090;2023-11-18T11:59:54;39.63;;;16.40;;
68507;SDS011;55510;49.560;19.090;2023-11-18T12:02:56;85.45;;;28.42;;
68507;SDS011;55510;49.560;19.090;2023-11-18T12:05:57;46.72;;;18.15;;
68507;SDS011;55510;49.560;19.090;2023-11-18T12:09:08;54.85;;;22.20;;
68507;SDS011;55510;49.560;19.090;2023-11-18T12:12:19;23.03;;;10.17;;
68507;SDS011;55510;49.560;19.090;2023-11-18T12:23:02;29.55;;;12.30;;
68507;SDS011;55510;49.560;19.090;2023-11-18T12:26:38;44.63;;;16.23;;
68507;SDS011;55510;49.560;19.090;2023-11-18T12:29:44;57.87;;;19.53;;
68507;SDS011;55510;49.560;19.090;2023-11-18T12:43:02;31.50;;;15.10;;
68507;SDS011;55510;49.560;19.090;2023-11-18T12:46:12;28.20;;;13.60;;
68507;SDS011;55510;49.560;19.090;2023-11-18T12:49:47;28.83;;;14.32;;
68507;SDS011;55510;49.560;19.090;2023-11-18T12:52:54;28.85;;;12.27;;
68507;SDS011;55510;49.560;19.090;2023-11-18T12:55:57;24.63;;;10.93;;
68507;SDS011;55510;49.560;19.090;2023-11-18T12:59:01;23.37;;;10.37;;
68507;SDS011;55510;49.560;19.090;2023-11-18T13:02:12;29.27;;;11.85;;
68507;SDS011;55510;49.560;19.090;2023-11-18T13:05:20;37.38;;;13.23;;
68507;SDS011;55510;49.560;19.090;2023-11-18T13:08:21;34.83;;;13.15;;
68507;SDS011;55510;49.560;19.090;2023-11-18T13:11:22;24.77;;;9.87;;
68507;SDS011;55510;49.560;19.090;2023-11-18T13:14:24;26.10;;;10.50;;
68507;SDS011;55510;49.560;19.090;2023-11-18T13:17:26;30.33;;;11.00;;
68507;SDS011;55510;49.560;19.090;2023-11-18T13:20:28;23.33;;;9.93;;
68507;SDS011;55510;49.560;19.090;2023-11-18T13:23:29;29.07;;;11.87;;
68507;SDS011;55510;49.560;19.090;2023-11-18T13:26:30;32.88;;;13.27;;
68507;SDS011;55510;49.560;19.090;2023-11-18T13:29:34;22.55;;;7.57;;
68507;SDS011;55510;49.560;19.090;2023-11-18T13:32:36;21.30;;;9.55;;
68507;SDS011;55510;49.560;19.090;2023-11-18T13:35:37;28.98;;;11.43;;
68507;SDS011;55510;49.560;19.090;2023-11-18T13:38:39;24.57;;;11.03;;
68507;SDS011;55510;49.560;19.090;2023-11-18T13:41:42;27.88;;;11.73;;
68507;SDS011;55510;49.560;19.090;2023-11-18T13:44:45;28.63;;;11.80;;
68507;SDS011;55510;49.560;19.090;2023-11-18T13:47:50;32.67;;;13.63;;
68507;SDS011;55510;49.560;19.090;2023-11-18T13:50:53;28.63;;;11.50;;
68507;SDS011;55510;49.560;19.090;2023-11-18T13:53:56;24.43;;;10.37;;
68507;SDS011;55510;49.560;19.090;2023-11-18T13:56:58;30.77;;;12.70;;
68507;SDS011;55510;49.560;19.090;2023-11-18T13:59:59;41.78;;;18.20;;
68507;SDS011;55510;49.560;19.090;2023-11-18T14:03:01;44.97;;;18.35;;
68507;SDS011;55510;49.560;19.090;2023-11-18T14:06:07;36.70;;;17.93;;
68507;SDS011;55510;49.560;19.090;2023-11-18T14:09:13;35.20;;;17.45;;
68507;SDS011;55510;49.560;19.090;2023-11-18T14:12:13;41.85;;;18.17;;
68507;SDS011;55510;49.560;19.090;2023-11-18T14:15:14;34.20;;;15.00;;
68507;SDS011;55510;49.560;19.090;2023-11-18T14:18:16;40.65;;;18.15;;
68507;SDS011;55510;49.560;19.090;2023-11-18T14:21:18;29.20;;;13.88;;
68507;SDS011;55510;49.560;19.090;2023-11-18T14:24:18;34.13;;;14.32;;
68507;SDS011;55510;49.560;19.090;2023-11-18T14:27:20;33.23;;;14.57;;
68507;SDS011;55510;49.560;19.090;2023-11-18T14:30:20;42.08;;;16.45;;
68507;SDS011;55510;49.560;19.090;2023-11-18T14:33:25;55.07;;;21.27;;
68507;SDS011;55510;49.560;19.090;2023-11-18T14:36:26;56.93;;;20.80;;
68507;SDS011;55510;49.560;19.090;2023-11-18T14:39:27;40.83;;;15.88;;
68507;SDS011;55510;49.560;19.090;2023-11-18T14:42:28;36.17;;;14.07;;
68507;SDS011;55510;49.560;19.090;2023-11-18T14:45:29;26.98;;;11.50;;
68507;SDS011;55510;49.560;19.090;2023-11-18T14:48:29;27.45;;;11.77;;
68507;SDS011;55510;49.560;19.090;2023-11-18T14:51:30;31.40;;;12.90;;
68507;SDS011;55510;49.560;19.090;2023-11-18T14:54:31;24.08;;;10.25;;
68507;SDS011;55510;49.560;19.090;2023-11-18T14:57:36;29.60;;;13.52;;
68507;SDS011;55510;49.560;19.090;2023-11-18T15:00:37;23.73;;;10.40;;
68507;SDS011;55510;49.560;19.090;2023-11-18T15:03:38;22.70;;;10.25;;
68507;SDS011;55510;49.560;19.090;2023-11-18T15:06:38;27.73;;;12.47;;
68507;SDS011;55510;49.560;19.090;2023-11-18T15:09:41;40.13;;;15.60;;
68507;SDS011;55510;49.560;19.090;2023-11-18T15:12:42;34.83;;;15.55;;
68507;SDS011;55510;49.560;19.090;2023-11-18T15:15:44;31.27;;;14.52;;
68507;SDS011;55510;49.560;19.090;2023-11-18T15:18:47;34.08;;;13.93;;
68507;SDS011;55510;49.560;19.090;2023-11-18T15:21:50;42.23;;;16.07;;
68507;SDS011;55510;49.560;19.090;2023-11-18T15:24:52;155.30;;;56.60;;
68507;SDS011;55510;49.560;19.090;2023-11-18T15:27:55;44.20;;;18.02;;
68507;SDS011;55510;49.560;19.090;2023-11-18T15:31:01;36.30;;;15.30;;
68507;SDS011;55510;49.560;19.090;2023-11-18T15:34:04;33.70;;;16.85;;
68507;SDS011;55510;49.560;19.090;2023-11-18T15:37:04;33.50;;;14.63;;
68507;SDS011;55510;49.560;19.090;2023-11-18T15:40:09;31.80;;;14.63;;
68507;SDS011;55510;49.560;19.090;2023-11-18T15:43:11;29.88;;;14.88;;
68507;SDS011;55510;49.560;19.090;2023-11-18T15:46:12;31.60;;;14.87;;
68507;SDS011;55510;49.560;19.090;2023-11-18T15:49:14;45.83;;;19.27;;
68507;SDS011;55510;49.560;19.090;2023-11-18T15:52:16;45.83;;;19.33;;
68507;SDS011;55510;49.560;19.090;2023-11-18T15:55:17;38.72;;;16.60;;
68507;SDS011;55510;49.560;19.090;2023-11-18T15:58:19;39.85;;;16.38;;
68507;SDS011;55510;49.560;19.090;2023-11-18T16:01:22;42.03;;;18.37;;
68507;SDS011;55510;49.560;19.090;2023-11-18T16:04:23;54.23;;;22.57;;
68507;SDS011;55510;49.560;19.090;2023-11-18T16:07:25;43.90;;;19.48;;
68507;SDS011;55510;49.560;19.090;2023-11-18T16:10:26;33.03;;;15.65;;
68507;SDS011;55510;49.560;19.090;2023-11-18T16:13:28;49.80;;;19.43;;
68507;SDS011;55510;49.560;19.090;2023-11-18T16:16:29;48.90;;;18.08;;
68507;SDS011;55510;49.560;19.090;2023-11-18T16:19:30;42.72;;;17.70;;
68507;SDS011;55510;49.560;19.090;2023-11-18T16:22:31;44.70;;;17.88;;
68507;SDS011;55510;49.560;19.090;2023-11-18T16:25:31;42.53;;;17.77;;
68507;SDS011;55510;49.560;19.090;2023-11-18T16:28:34;75.20;;;25.90;;
68507;SDS011;55510;49.560;19.090;2023-11-18T16:31:35;48.13;;;19.85;;
68507;SDS011;55510;49.560;19.090;2023-11-18T16:34:36;91.10;;;34.30;;
68507;SDS011;55510;49.560;19.090;2023-11-18T16:37:38;80.32;;;28.67;;
68507;SDS011;55510;49.560;19.090;2023-11-18T16:40:42;102.35;;;34.92;;
68507;SDS011;55510;49.560;19.090;2023-11-18T16:43:43;118.93;;;43.47;;
68507;SDS011;55510;49.560;19.090;2023-11-18T16:46:45;136.03;;;52.83;;
68507;SDS011;55510;49.560;19.090;2023-11-18T16:49:46;135.63;;;50.55;;
68507;SDS011;55510;49.560;19.090;2023-11-18T16:52:47;69.70;;;28.50;;
68507;SDS011;55510;49.560;19.090;2023-11-18T16:55:48;62.47;;;26.10;;
68507;SDS011;55510;49.560;19.090;2023-11-18T16:58:49;52.88;;;22.40;;
68507;SDS011;55510;49.560;19.090;2023-11-18T17:01:49;61.30;;;25.67;;
68507;SDS011;55510;49.560;19.090;2023-11-18T17:04:50;49.22;;;20.40;;
68507;SDS011;55510;49.560;19.090;2023-11-18T17:07:51;53.55;;;21.63;;
68507;SDS011;55510;49.560;19.090;2023-11-18T17:10:55;47.23;;;21.03;;
68507;SDS011;55510;49.560;19.090;2023-11-18T17:13:56;54.83;;;20.63;;
68507;SDS011;55510;49.560;19.090;2023-11-18T17:16:57;54.13;;;20.93;;
68507;SDS011;55510;49.560;19.090;2023-11-18T17:19:58;43.90;;;19.17;;
68507;SDS011;55510;49.560;19.090;2023-11-18T17:22:59;46.95;;;20.02;;
68507;SDS011;55510;49.560;19.090;2023-11-18T17:25:59;42.60;;;19.53;;
68507;SDS011;55510;49.560;19.090;2023-11-18T17:29:00;49.50;;;21.83;;
68507;SDS011;55510;49.560;19.090;2023-11-18T17:32:01;44.27;;;20.50;;
68507;SDS011;55510;49.560;19.090;2023-11-18T17:35:04;53.55;;;22.48;;
68507;SDS011;55510;49.560;19.090;2023-11-18T17:38:08;61.35;;;26.92;;
68507;SDS011;55510;49.560;19.090;2023-11-18T17:41:09;69.07;;;28.80;;
68507;SDS011;55510;49.560;19.090;2023-11-18T17:44:10;53.07;;;24.80;;
68507;SDS011;55510;49.560;19.090;2023-11-18T17:47:12;61.33;;;24.55;;
68507;SDS011;55510;49.560;19.090;2023-11-18T17:50:13;51.55;;;19.65;;
68507;SDS011;55510;49.560;19.090;2023-11-18T17:53:18;47.87;;;19.90;;
68507;SDS011;55510;49.560;19.090;2023-11-18T17:56:19;44.22;;;17.60;;
68507;SDS011;55510;49.560;19.090;2023-11-18T17:59:20;47.45;;;19.38;;
68507;SDS011;55510;49.560;19.090;2023-11-18T18:02:21;74.78;;;30.13;;
68507;SDS011;55510;49.560;19.090;2023-11-18T18:05:22;49.43;;;21.20;;
68507;SDS011;55510;49.560;19.090;2023-11-18T18:08:23;63.55;;;26.42;;
68507;SDS011;55510;49.560;19.090;2023-11-18T18:11:24;51.07;;;23.33;;
68507;SDS011;55510;49.560;19.090;2023-11-18T18:14:25;56.47;;;22.98;;
68507;SDS011;55510;49.560;19.090;2023-11-18T18:17:26;47.33;;;21.85;;
68507;SDS011;55510;49.560;19.090;2023-11-18T18:20:27;51.33;;;20.40;;
68507;SDS011;55510;49.560;19.090;2023-11-18T18:23:29;49.65;;;22.52;;
68507;SDS011;55510;49.560;19.090;2023-11-18T18:26:31;77.78;;;31.98;;
68507;SDS011;55510;49.560;19.090;2023-11-18T18:29:32;60.20;;;28.15;;
68507;SDS011;55510;49.560;19.090;2023-11-18T18:32:33;48.15;;;21.52;;
68507;SDS011;55510;49.560;19.090;2023-11-18T18:35:34;44.30;;;18.87;;
68507;SDS011;55510;49.560;19.090;2023-11-18T18:38:36;49.83;;;21.70;;
68507;SDS011;55510;49.560;19.090;2023-11-18T18:41:38;77.45;;;28.00;;
68507;SDS011;55510;49.560;19.090;2023-11-18T18:44:38;65.57;;;26.70;;
68507;SDS011;55510;49.560;19.090;2023-11-18T18:47:40;84.63;;;42.17;;
68507;SDS011;55510;49.560;19.090;2023-11-18T18:50:40;62.75;;;29.55;;
68507;SDS011;55510;49.560;19.090;2023-11-18T18:53:41;78.93;;;37.03;;
68507;SDS011;55510;49.560;19.090;2023-11-18T18:56:42;65.93;;;29.50;;
68507;SDS011;55510;49.560;19.090;2023-11-18T18:59:43;53.65;;;25.27;;
68507;SDS011;55510;49.560;19.090;2023-11-18T19:02:44;53.77;;;23.77;;
68507;SDS011;55510;49.560;19.090;2023-11-18T19:05:46;54.03;;;22.90;;
68507;SDS011;55510;49.560;19.090;2023-11-18T19:08:47;49.80;;;20.48;;
68507;SDS011;55510;49.560;19.090;2023-11-18T19:11:48;56.43;;;20.70;;
68507;SDS011;55510;49.560;19.090;2023-11-18T19:14:49;44.60;;;18.25;;
68507;SDS011;55510;49.560;19.090;2023-11-18T19:17:51;51.20;;;20.77;;
68507;SDS011;55510;49.560;19.090;2023-11-18T19:20:52;67.78;;;24.90;;
68507;SDS011;55510;49.560;19.090;2023-11-18T19:23:53;43.90;;;17.37;;
68507;SDS011;55510;49.560;19.090;2023-11-18T19:26:54;45.55;;;17.73;;
68507;SDS011;55510;49.560;19.090;2023-11-18T19:29:57;43.83;;;18.90;;
68507;SDS011;55510;49.560;19.090;2023-11-18T19:32:58;46.05;;;17.55;;
68507;SDS011;55510;49.560;19.090;2023-11-18T19:35:59;42.67;;;15.48;;
68507;SDS011;55510;49.560;19.090;2023-11-18T19:38:59;34.87;;;12.70;;
68507;SDS011;55510;49.560;19.090;2023-11-18T19:42:01;30.63;;;12.70;;
68507;SDS011;55510;49.560;19.090;2023-11-18T19:45:03;49.77;;;17.50;;
68507;SDS011;55510;49.560;19.090;2023-11-18T19:48:06;42.40;;;16.98;;
68507;SDS011;55510;49.560;19.090;2023-11-18T19:51:07;37.97;;;17.17;;
68507;SDS011;55510;49.560;19.090;2023-11-18T19:54:09;48.15;;;19.73;;
68507;SDS011;55510;49.560;19.090;2023-11-18T19:57:09;43.40;;;17.63;;
68507;SDS011;55510;49.560;19.090;2023-11-18T20:00:12;46.63;;;18.95;;
68507;SDS011;55510;49.560;19.090;2023-11-18T20:03:17;57.05;;;22.40;;
68507;SDS011;55510;49.560;19.090;2023-11-18T20:06:18;87.78;;;31.65;;
68507;SDS011;55510;49.560;19.090;2023-11-18T20:09:19;75.13;;;31.20;;
68507;SDS011;55510;49.560;19.090;2023-11-18T20:12:22;51.03;;;21.33;;
68507;SDS011;55510;49.560;19.090;2023-11-18T20:15:23;47.95;;;21.35;;
68507;SDS011;55510;49.560;19.090;2023-11-18T20:18:28;61.47;;;29.90;;
68507;SDS011;55510;49.560;19.090;2023-11-18T20:21:30;84.73;;;36.63;;
68507;SDS011;55510;49.560;19.090;2023-11-18T20:24:31;68.15;;;28.98;;
68507;SDS011;55510;49.560;19.090;2023-11-18T20:27:33;107.87;;;31.90;;
68507;SDS011;55510;49.560;19.090;2023-11-18T20:30:34;73.30;;;23.75;;
68507;SDS011;55510;49.560;19.090;2023-11-18T20:33:35;70.22;;;25.80;;
68507;SDS011;55510;49.560;19.090;2023-11-18T20:36:36;60.40;;;23.27;;
68507;SDS011;55510;49.560;19.090;2023-11-18T20:39:37;62.33;;;23.38;;
68507;SDS011;55510;49.560;19.090;2023-11-18T20:42:39;54.97;;;20.13;;
68507;SDS011;55510;49.560;19.090;2023-11-18T20:45:40;61.00;;;21.45;;
68507;SDS011;55510;49.560;19.090;2023-11-18T20:48:49;53.33;;;20.17;;
68507;SDS011;55510;49.560;19.090;2023-11-18T20:51:50;55.30;;;21.13;;
68507;SDS011;55510;49.560;19.090;2023-11-18T20:54:51;48.63;;;17.42;;
68507;SDS011;55510;49.560;19.090;2023-11-18T20:57:52;46.23;;;18.17;;
68507;SDS011;55510;49.560;19.090;2023-11-18T21:00:53;52.35;;;19.75;;
68507;SDS011;55510;49.560;19.090;2023-11-18T21:03:54;54.53;;;19.50;;
68507;SDS011;55510;49.560;19.090;2023-11-18T21:06:55;53.63;;;19.23;;
68507;SDS011;55510;49.560;19.090;2023-11-18T21:09:55;53.70;;;20.40;;
68507;SDS011;55510;49.560;19.090;2023-11-18T21:12:57;47.30;;;17.80;;
68507;SDS011;55510;49.560;19.090;2023-11-18T21:15:57;39.97;;;16.27;;
68507;SDS011;55510;49.560;19.090;2023-11-18T21:18:58;49.97;;;18.48;;
68507;SDS011;55510;49.560;19.090;2023-11-18T21:22:01;56.85;;;20.30;;
68507;SDS011;55510;49.560;19.090;2023-11-18T21:25:02;64.47;;;21.97;;
68507;SDS011;55510;49.560;19.090;2023-11-18T21:28:05;60.97;;;23.83;;
68507;SDS011;55510;49.560;19.090;2023-11-18T21:31:06;66.03;;;24.02;;
68507;SDS011;55510;49.560;19.090;2023-11-18T21:34:07;61.45;;;23.55;;
68507;SDS011;55510;49.560;19.090;2023-11-18T21:37:08;59.40;;;22.13;;
68507;SDS011;55510;49.560;19.090;2023-11-18T21:40:13;46.03;;;18.38;;
68507;SDS011;55510;49.560;19.090;2023-11-18T21:43:14;49.70;;;17.23;;
68507;SDS011;55510;49.560;19.090;2023-11-18T21:46:15;88.28;;;26.55;;
68507;SDS011;55510;49.560;19.090;2023-11-18T21:49:16;109.37;;;32.37;;
68507;SDS011;55510;49.560;19.090;2023-11-18T21:52:17;102.75;;;30.70;;
68507;SDS011;55510;49.560;19.090;2023-11-18T21:55:18;96.40;;;28.77;;
68507;SDS011;55510;49.560;19.090;2023-11-18T21:58:22;58.88;;;22.63;;
68507;SDS011;55510;49.560;19.090;2023-11-18T22:01:24;50.72;;;19.65;;
68507;SDS011;55510;49.560;19.090;2023-11-18T22:04:24;58.07;;;21.17;;
68507;SDS011;55510;49.560;19.090;2023-11-18T22:07:25;54.22;;;18.65;;
68507;SDS011;55510;49.560;19.090;2023-11-18T22:10:26;42.53;;;16.30;;
68507;SDS011;55510;49.560;19.090;2023-11-18T22:13:27;45.28;;;15.73;;
